Time;durP1;ratioP1;P1;durP2;ratioP2;P2;SDS_P1;SDS_P2;PMS_P1;PMS_P2;Temp;Humidity;BMP_temperature;BMP_pressure;BME280_temperature;BME280_humidity;BME280_pressure;Samples;Min_cycle;Max_cycle;Signal;HPM_P1;HPM_P2
2021/11/23 00:00:12;;;;;;;10.82;3.63;;;7.20;99.90;;;;;;5137502;27;20462;-69
2021/11/23 00:02:39;;;;;;;12.02;4.00;;;7.30;99.90;;;;;;5136686;27;20071;-70
2021/11/23 00:05:06;;;;;;;11.25;3.22;;;7.30;99.90;;;;;;5137828;27;20428;-69
2021/11/23 00:07:32;;;;;;;10.52;3.25;;;7.30;99.90;;;;;;5135608;27;20091;-69
2021/11/23 00:09:58;;;;;;;9.70;3.40;;;7.30;99.90;;;;;;5137216;27;20043;-69
2021/11/23 00:12:24;;;;;;;14.20;3.53;;;7.40;99.90;;;;;;5137650;27;20117;-69
2021/11/23 00:14:50;;;;;;;7.82;3.55;;;7.40;99.90;;;;;;5137679;27;20430;-69
2021/11/23 00:17:17;;;;;;;10.38;4.18;;;7.40;99.90;;;;;;5136582;27;20043;-70
2021/11/23 00:19:42;;;;;;;13.07;3.92;;;7.40;99.90;;;;;;5136935;27;20047;-69
2021/11/23 00:22:08;;;;;;;11.15;4.03;;;7.50;99.90;;;;;;5137226;27;20100;-69
2021/11/23 00:24:34;;;;;;;13.23;4.18;;;7.50;99.90;;;;;;5136897;27;20441;-69
2021/11/23 00:27:00;;;;;;;10.27;3.10;;;7.50;99.90;;;;;;5135357;27;20057;-69
2021/11/23 00:29:26;;;;;;;12.10;3.85;;;7.50;99.90;;;;;;5137717;27;20468;-69
2021/11/23 00:31:52;;;;;;;6.85;3.30;;;7.60;99.90;;;;;;5135641;27;20045;-69
2021/11/23 00:34:17;;;;;;;7.65;4.10;;;7.60;99.90;;;;;;5135443;27;20470;-69
2021/11/23 00:36:43;;;;;;;11.20;3.55;;;7.60;99.90;;;;;;5136426;27;20045;-69
2021/11/23 00:39:08;;;;;;;10.82;3.78;;;7.70;99.90;;;;;;5136547;27;20449;-69
2021/11/23 00:41:34;;;;;;;7.60;3.45;;;7.70;99.90;;;;;;5136751;27;20396;-69
2021/11/23 00:44:00;;;;;;;9.85;3.28;;;7.70;99.90;;;;;;5137065;27;20031;-69
2021/11/23 00:46:26;;;;;;;9.77;3.58;;;7.80;99.90;;;;;;5135477;27;20042;-69
2021/11/23 00:48:52;;;;;;;8.98;4.32;;;7.80;99.90;;;;;;5135796;27;20050;-69
2021/11/23 00:51:18;;;;;;;7.03;3.72;;;7.80;99.90;;;;;;5136706;27;20039;-69
2021/11/23 00:53:44;;;;;;;9.35;3.35;;;7.80;99.90;;;;;;5136553;27;20035;-70
2021/11/23 00:56:09;;;;;;;9.95;3.88;;;7.80;99.90;;;;;;5134983;27;20031;-69
2021/11/23 00:58:35;;;;;;;12.70;3.80;;;7.80;99.90;;;;;;5135336;27;20102;-69
2021/11/23 01:01:02;;;;;;;7.25;3.17;;;7.80;99.90;;;;;;5136781;27;20043;-69
2021/11/23 01:03:32;;;;;;;9.23;3.63;;;7.80;99.90;;;;;;5136645;27;20457;-69
2021/11/23 01:05:59;;;;;;;9.93;3.17;;;7.80;99.90;;;;;;5135953;27;20450;-69
2021/11/23 01:08:27;;;;;;;7.32;3.60;;;7.90;99.90;;;;;;5136289;27;20499;-69
2021/11/23 01:10:53;;;;;;;11.07;3.30;;;7.90;99.90;;;;;;5136535;27;20034;-69
2021/11/23 01:13:19;;;;;;;7.90;3.38;;;7.90;99.90;;;;;;5135989;27;20043;-69
2021/11/23 01:15:45;;;;;;;6.15;3.35;;;7.90;99.90;;;;;;5134990;27;20039;-69
2021/11/23 01:18:11;;;;;;;10.30;3.60;;;7.90;99.90;;;;;;5134460;27;20122;-69
2021/11/23 01:20:37;;;;;;;12.35;3.90;;;7.90;99.90;;;;;;5135380;27;20065;-69
2021/11/23 01:23:04;;;;;;;9.80;3.65;;;8.00;99.90;;;;;;5134305;27;20092;-70
2021/11/23 01:25:30;;;;;;;7.82;3.40;;;8.00;99.90;;;;;;5134518;27;20049;-70
2021/11/23 01:27:56;;;;;;;11.93;4.07;;;8.00;99.90;;;;;;5135666;27;20042;-69
2021/11/23 01:30:22;;;;;;;11.38;4.18;;;8.10;99.90;;;;;;5135764;27;20031;-69
2021/11/23 01:32:48;;;;;;;7.72;3.83;;;8.10;99.90;;;;;;5135435;27;20468;-69
2021/11/23 01:35:14;;;;;;;11.15;3.83;;;8.10;99.90;;;;;;5135620;27;20046;-69
2021/11/23 01:37:42;;;;;;;10.55;3.72;;;8.10;99.90;;;;;;5135439;27;20032;-69
2021/11/23 01:40:09;;;;;;;9.82;3.85;;;8.20;99.90;;;;;;5135317;27;20507;-69
2021/11/23 01:42:35;;;;;;;8.40;3.33;;;8.20;99.90;;;;;;5135990;27;20042;-69
2021/11/23 01:45:01;;;;;;;7.00;3.40;;;8.20;99.90;;;;;;5134234;27;20109;-69
2021/11/23 01:47:27;;;;;;;7.35;3.47;;;8.20;99.90;;;;;;5135105;27;20039;-69
2021/11/23 01:49:52;;;;;;;6.53;3.42;;;8.20;99.90;;;;;;5135272;27;20043;-69
2021/11/23 01:52:18;;;;;;;6.18;3.22;;;8.20;99.90;;;;;;5135802;27;20027;-69
2021/11/23 01:54:44;;;;;;;13.35;3.70;;;8.20;99.90;;;;;;5135292;27;20541;-69
2021/11/23 01:57:10;;;;;;;7.60;3.00;;;8.30;99.90;;;;;;5134726;27;20389;-69
2021/11/23 01:59:36;;;;;;;12.38;3.72;;;8.20;99.90;;;;;;5135250;27;20096;-69
2021/11/23 02:02:02;;;;;;;9.05;3.58;;;8.20;99.90;;;;;;5135129;27;20035;-69
2021/11/23 02:04:27;;;;;;;8.60;3.28;;;8.30;99.90;;;;;;5135082;27;20084;-69
2021/11/23 02:06:53;;;;;;;11.65;4.22;;;8.30;99.90;;;;;;5134615;27;20038;-69
2021/11/23 02:09:19;;;;;;;6.43;3.42;;;8.30;99.90;;;;;;5134869;27;20487;-69
2021/11/23 02:11:44;;;;;;;8.02;3.28;;;8.30;99.90;;;;;;5135378;27;20035;-69
2021/11/23 02:14:11;;;;;;;9.38;3.35;;;8.30;99.90;;;;;;5135383;27;20388;-69
2021/11/23 02:16:37;;;;;;;9.98;3.70;;;8.30;99.90;;;;;;5134958;27;20157;-69
2021/11/23 02:19:03;;;;;;;8.45;3.67;;;8.40;99.90;;;;;;5135190;27;20031;-69
2021/11/23 02:21:29;;;;;;;6.80;3.58;;;8.40;99.90;;;;;;5135042;27;20044;-69
2021/11/23 02:23:55;;;;;;;7.18;3.60;;;8.40;99.90;;;;;;5135170;27;20153;-70
2021/11/23 02:26:21;;;;;;;9.52;4.05;;;8.40;99.90;;;;;;5134203;27;20160;-70
2021/11/23 02:28:47;;;;;;;9.50;3.30;;;8.40;99.90;;;;;;5134412;27;20488;-70
2021/11/23 02:31:13;;;;;;;5.90;3.20;;;8.40;99.90;;;;;;5133666;27;20047;-70
2021/11/23 02:33:39;;;;;;;7.13;2.78;;;8.40;99.90;;;;;;5133508;27;20545;-70
2021/11/23 02:36:09;;;;;;;10.43;3.65;;;8.50;99.90;;;;;;5133041;27;20074;-70
2021/11/23 02:38:36;;;;;;;8.98;3.00;;;8.50;99.90;;;;;;5135107;27;20092;-70
2021/11/23 02:41:04;;;;;;;5.72;3.10;;;8.50;99.90;;;;;;5133808;27;20464;-70
2021/11/23 02:43:29;;;;;;;5.20;2.85;;;8.50;99.90;;;;;;5134211;27;20035;-70
2021/11/23 02:45:55;;;;;;;6.47;3.35;;;8.50;99.90;;;;;;5133970;27;20445;-69
2021/11/23 02:48:21;;;;;;;6.85;3.38;;;8.60;99.90;;;;;;5134697;27;20125;-69
2021/11/23 02:50:53;;;;;;;10.85;3.55;;;8.50;99.90;;;;;;5133655;27;20039;-69
2021/11/23 02:53:19;;;;;;;9.30;3.50;;;8.50;99.90;;;;;;5134890;27;20035;-70
2021/11/23 02:55:44;;;;;;;10.13;3.60;;;8.50;99.90;;;;;;5134507;27;20480;-70
2021/11/23 02:58:10;;;;;;;5.75;3.38;;;8.50;99.90;;;;;;5134290;27;20042;-70
2021/11/23 03:00:38;;;;;;;12.45;3.22;;;8.50;99.90;;;;;;5134760;28;20540;-70
2021/11/23 03:03:04;;;;;;;7.13;3.10;;;8.50;99.90;;;;;;5134414;27;20433;-70
2021/11/23 03:05:30;;;;;;;9.57;3.58;;;8.50;99.90;;;;;;5134516;28;20035;-69
2021/11/23 03:07:57;;;;;;;9.65;3.55;;;8.50;99.90;;;;;;5133983;28;20043;-69
2021/11/23 03:10:24;;;;;;;10.52;3.58;;;8.50;99.90;;;;;;5133951;27;20039;-69
2021/11/23 03:12:52;;;;;;;7.35;3.33;;;8.50;99.90;;;;;;5134055;27;20495;-69
2021/11/23 03:15:19;;;;;;;11.48;3.40;;;8.50;99.90;;;;;;5134376;27;20490;-69
2021/11/23 03:17:45;;;;;;;12.90;4.20;;;8.50;99.90;;;;;;5134015;27;20035;-69
2021/11/23 03:20:19;;;;;;;8.25;3.00;;;8.50;99.90;;;;;;5133956;27;20370;-69
2021/11/23 03:22:45;;;;;;;7.32;3.08;;;8.50;99.90;;;;;;5133249;27;20468;-69
2021/11/23 03:25:12;;;;;;;8.68;3.00;;;8.50;99.90;;;;;;5132601;28;20043;-69
2021/11/23 03:27:38;;;;;;;6.88;2.70;;;8.50;99.90;;;;;;5133829;27;20038;-70
2021/11/23 03:30:06;;;;;;;7.47;3.17;;;8.40;99.90;;;;;;5134283;28;20076;-70
2021/11/23 03:32:32;;;;;;;9.30;3.00;;;8.50;99.90;;;;;;5132861;28;20046;-70
2021/11/23 03:34:58;;;;;;;10.82;3.28;;;8.40;99.90;;;;;;5133904;27;20484;-70
2021/11/23 03:37:25;;;;;;;5.57;2.30;;;8.50;99.90;;;;;;5133428;27;20046;-70
2021/11/23 03:39:53;;;;;;;11.02;2.58;;;8.40;99.90;;;;;;5133703;27;20478;-70
2021/11/23 03:42:19;;;;;;;9.57;2.90;;;8.40;99.90;;;;;;5134077;27;20035;-70
2021/11/23 03:44:45;;;;;;;12.35;2.47;;;8.40;99.90;;;;;;5136587;27;20468;-69
2021/11/23 03:47:13;;;;;;;11.63;2.63;;;8.40;99.90;;;;;;5137805;27;20051;-70
2021/11/23 03:49:43;;;;;;;7.80;2.25;;;8.40;99.90;;;;;;5137856;27;20035;-70
2021/11/23 03:52:10;;;;;;;13.10;3.95;;;8.40;99.90;;;;;;5137677;27;20039;-70
2021/11/23 03:54:36;;;;;;;6.70;2.38;;;8.40;99.90;;;;;;5137844;27;20053;-70
2021/11/23 03:57:02;;;;;;;10.18;2.50;;;8.40;99.90;;;;;;5137385;27;20035;-69
2021/11/23 03:59:28;;;;;;;12.55;2.95;;;8.40;99.90;;;;;;5137393;27;20051;-70
2021/11/23 04:01:54;;;;;;;7.25;2.50;;;8.40;99.90;;;;;;5137353;27;20399;-69
2021/11/23 04:04:20;;;;;;;14.07;2.17;;;8.30;99.90;;;;;;5135968;27;20035;-70
2021/11/23 04:06:45;;;;;;;13.13;3.25;;;8.40;99.90;;;;;;5136877;27;20076;-69
2021/11/23 04:09:11;;;;;;;8.57;2.40;;;8.40;99.90;;;;;;5136398;27;20452;-69
2021/11/23 04:11:37;;;;;;;8.93;2.40;;;8.40;99.90;;;;;;5137327;27;20060;-70
2021/11/23 04:14:03;;;;;;;9.27;2.20;;;8.40;99.90;;;;;;5136263;27;20529;-70
2021/11/23 04:16:28;;;;;;;9.32;2.53;;;8.40;99.90;;;;;;5136635;27;20035;-70
2021/11/23 04:18:54;;;;;;;12.75;2.10;;;8.40;99.90;;;;;;5137609;27;20050;-70
2021/11/23 04:21:20;;;;;;;11.43;2.15;;;8.30;99.90;;;;;;5137667;27;20035;-70
2021/11/23 04:23:46;;;;;;;14.48;2.20;;;8.30;99.90;;;;;;5137254;27;20035;-69
2021/11/23 04:26:12;;;;;;;7.72;2.15;;;8.40;99.90;;;;;;5135258;27;20035;-70
2021/11/23 04:28:38;;;;;;;9.65;1.80;;;8.40;99.90;;;;;;5135899;27;20463;-70
2021/11/23 04:31:04;;;;;;;9.68;1.77;;;8.40;99.90;;;;;;5119176;27;20043;-70
2021/11/23 04:33:30;;;;;;;8.27;1.65;;;8.40;99.90;;;;;;5137355;27;20519;-70
2021/11/23 04:35:55;;;;;;;7.57;1.50;;;8.50;99.90;;;;;;5136540;27;20035;-70
2021/11/23 04:38:21;;;;;;;5.65;1.77;;;8.50;99.90;;;;;;5136665;27;20046;-69
2021/11/23 04:40:47;;;;;;;9.43;1.77;;;8.50;99.90;;;;;;5135611;27;20035;-70
2021/11/23 04:43:12;;;;;;;7.50;1.83;;;8.50;99.90;;;;;;5136532;27;20510;-70
2021/11/23 04:45:38;;;;;;;9.52;2.05;;;8.50;99.90;;;;;;5136105;27;20039;-70
2021/11/23 04:48:05;;;;;;;10.23;2.13;;;8.50;99.90;;;;;;5137029;27;20042;-69
2021/11/23 04:50:31;;;;;;;15.88;2.38;;;8.40;99.90;;;;;;5136624;27;20047;-70
2021/11/23 04:52:57;;;;;;;6.78;1.80;;;8.40;99.90;;;;;;5136304;27;20481;-70
2021/11/23 04:55:23;;;;;;;7.75;1.90;;;8.30;99.90;;;;;;5134150;27;20122;-70
2021/11/23 04:57:48;;;;;;;8.98;1.45;;;8.30;99.90;;;;;;5136497;27;20117;-70
2021/11/23 05:00:17;;;;;;;13.13;2.50;;;8.30;99.90;;;;;;5136831;27;20487;-70
2021/11/23 05:02:43;;;;;;;7.40;1.30;;;8.30;99.90;;;;;;5136106;27;20039;-70
2021/11/23 05:05:11;;;;;;;9.80;2.13;;;8.30;99.90;;;;;;5136577;27;20039;-70
2021/11/23 05:07:38;;;;;;;9.60;1.60;;;8.30;99.90;;;;;;5134507;27;20412;-70
2021/11/23 05:10:05;;;;;;;7.47;1.50;;;8.30;99.90;;;;;;5136226;27;20053;-70
2021/11/23 05:12:31;;;;;;;6.80;1.92;;;8.40;99.90;;;;;;5136113;27;20099;-70
2021/11/23 05:14:57;;;;;;;8.93;2.10;;;8.30;99.90;;;;;;5136572;27;20039;-70
2021/11/23 05:17:22;;;;;;;8.35;1.42;;;8.30;99.90;;;;;;5135513;27;20100;-69
2021/11/23 05:19:48;;;;;;;15.50;2.30;;;8.30;99.90;;;;;;5134499;27;20039;-70
2021/11/23 05:22:14;;;;;;;9.55;1.80;;;8.30;99.90;;;;;;5136292;27;20034;-70
2021/11/23 05:24:39;;;;;;;6.20;1.80;;;8.30;99.90;;;;;;5134827;27;20396;-70
2021/11/23 05:27:06;;;;;;;8.95;1.75;;;8.30;99.90;;;;;;5135607;27;20041;-69
2021/11/23 05:29:32;;;;;;;12.77;2.10;;;8.30;99.90;;;;;;5136118;27;20082;-70
2021/11/23 05:31:58;;;;;;;6.18;1.58;;;8.30;99.90;;;;;;5135834;27;20062;-70
2021/11/23 05:34:23;;;;;;;10.75;2.00;;;8.20;99.90;;;;;;5135856;27;20487;-69
2021/11/23 05:36:49;;;;;;;10.73;1.52;;;8.20;99.90;;;;;;5133879;27;20035;-69
2021/11/23 05:39:14;;;;;;;14.02;2.08;;;8.20;99.90;;;;;;5135527;27;20035;-70
2021/11/23 05:41:40;;;;;;;12.50;2.10;;;8.20;99.90;;;;;;5134674;27;20122;-69
2021/11/23 05:44:07;;;;;;;10.82;2.10;;;8.20;99.90;;;;;;5135553;27;20380;-70
2021/11/23 05:46:33;;;;;;;9.50;2.50;;;8.10;99.90;;;;;;5134917;27;20043;-70
2021/11/23 05:48:59;;;;;;;10.93;3.22;;;8.20;99.90;;;;;;5135466;27;20047;-70
2021/11/23 05:51:25;;;;;;;6.03;1.80;;;8.10;99.90;;;;;;5135149;27;20054;-69
2021/11/23 05:53:51;;;;;;;11.68;2.30;;;8.10;99.90;;;;;;5135569;27;20042;-70
2021/11/23 05:56:16;;;;;;;10.13;1.73;;;8.20;99.90;;;;;;5135082;27;20040;-69
2021/11/23 05:58:42;;;;;;;7.22;1.77;;;8.10;99.90;;;;;;5135497;27;20057;-70
2021/11/23 06:01:08;;;;;;;7.68;1.85;;;8.10;99.90;;;;;;5135014;27;20067;-70
2021/11/23 06:03:34;;;;;;;14.43;2.55;;;8.20;99.90;;;;;;5134070;27;20070;-69
2021/11/23 06:05:59;;;;;;;9.80;2.40;;;8.10;99.90;;;;;;5133325;27;20084;-70
2021/11/23 06:08:25;;;;;;;14.80;2.17;;;8.10;99.90;;;;;;5134997;27;20039;-69
2021/11/23 06:10:51;;;;;;;12.85;2.33;;;8.10;99.90;;;;;;5135252;27;20035;-70
2021/11/23 06:13:17;;;;;;;11.80;2.10;;;8.10;99.90;;;;;;5135095;27;20118;-69
2021/11/23 06:15:45;;;;;;;15.25;2.80;;;8.10;99.90;;;;;;5134399;27;20469;-70
2021/11/23 06:18:14;;;;;;;10.45;1.60;;;8.00;99.90;;;;;;5134480;27;20477;-70
2021/11/23 06:20:43;;;;;;;9.52;1.92;;;8.00;99.90;;;;;;5134974;27;20110;-70
2021/11/23 06:23:11;;;;;;;7.18;1.88;;;8.00;99.90;;;;;;5134992;27;20067;-70
2021/11/23 06:25:36;;;;;;;9.10;1.73;;;8.00;99.90;;;;;;5134384;27;20523;-69
2021/11/23 06:28:02;;;;;;;12.32;1.65;;;8.00;99.90;;;;;;5133831;27;20080;-70
2021/11/23 06:30:29;;;;;;;10.35;1.70;;;8.00;99.90;;;;;;5133766;27;20108;-70
2021/11/23 06:32:55;;;;;;;10.13;1.83;;;8.00;99.90;;;;;;5134799;27;20056;-69
2021/11/23 06:35:21;;;;;;;8.63;1.92;;;8.00;99.90;;;;;;5134641;27;20046;-70
2021/11/23 06:37:47;;;;;;;10.95;1.65;;;8.00;99.90;;;;;;5133537;27;20039;-69
2021/11/23 06:40:12;;;;;;;9.07;1.60;;;8.00;99.90;;;;;;5134741;27;20039;-70
2021/11/23 06:42:38;;;;;;;7.97;1.73;;;8.00;99.90;;;;;;5134944;27;20037;-70
2021/11/23 06:45:05;;;;;;;10.02;1.90;;;8.00;99.90;;;;;;5134510;27;20035;-70
2021/11/23 06:47:31;;;;;;;9.30;1.30;;;8.00;99.90;;;;;;5132905;27;20093;-69
2021/11/23 06:49:56;;;;;;;9.45;1.73;;;8.00;99.90;;;;;;5133233;27;20035;-70
2021/11/23 06:52:23;;;;;;;9.50;1.60;;;8.00;99.90;;;;;;5134293;27;20035;-70
2021/11/23 06:54:49;;;;;;;10.02;1.88;;;8.00;99.90;;;;;;5134379;27;20099;-69
2021/11/23 06:57:15;;;;;;;10.00;2.13;;;8.00;99.90;;;;;;5132577;28;20563;-70
2021/11/23 06:59:41;;;;;;;6.05;1.92;;;8.00;99.90;;;;;;5134464;28;20078;-70
2021/11/23 07:02:07;;;;;;;6.45;2.33;;;8.10;99.90;;;;;;5134231;27;20384;-70
2021/11/23 07:04:34;;;;;;;8.85;2.55;;;8.00;99.90;;;;;;5134520;28;20071;-69
2021/11/23 07:07:00;;;;;;;9.23;2.22;;;8.00;99.90;;;;;;5133758;27;20080;-69
2021/11/23 07:09:26;;;;;;;5.82;1.80;;;8.00;99.90;;;;;;5133700;28;20043;-69
2021/11/23 07:11:52;;;;;;;13.07;2.28;;;8.00;99.90;;;;;;5134084;28;20503;-70
2021/11/23 07:14:18;;;;;;;8.32;2.10;;;8.10;99.90;;;;;;5132776;28;20047;-70
2021/11/23 07:16:45;;;;;;;12.50;1.52;;;8.00;99.90;;;;;;5133961;27;20058;-69
2021/11/23 07:19:11;;;;;;;9.18;1.45;;;8.10;99.90;;;;;;5134855;27;20039;-69
2021/11/23 07:21:36;;;;;;;11.30;2.38;;;8.10;99.90;;;;;;5138363;27;20412;-69
2021/11/23 07:24:03;;;;;;;6.90;1.67;;;8.10;99.90;;;;;;5138032;27;20092;-69
2021/11/23 07:26:30;;;;;;;11.95;1.88;;;8.10;99.90;;;;;;5136282;27;20088;-70
2021/11/23 07:28:57;;;;;;;8.18;2.38;;;8.10;99.90;;;;;;5137885;27;20491;-69
2021/11/23 07:31:23;;;;;;;7.57;1.63;;;8.20;99.90;;;;;;5138292;27;20050;-69
2021/11/23 07:33:48;;;;;;;15.50;2.22;;;8.10;99.90;;;;;;5138286;27;20039;-70
2021/11/23 07:36:16;;;;;;;8.13;2.00;;;8.10;99.90;;;;;;5136728;27;20060;-69
2021/11/23 07:38:42;;;;;;;10.60;1.58;;;8.10;99.90;;;;;;5138308;27;20050;-69
2021/11/23 07:41:08;;;;;;;9.88;2.20;;;8.10;99.90;;;;;;5138379;27;20035;-70
2021/11/23 07:43:33;;;;;;;9.20;2.67;;;8.10;99.90;;;;;;5136468;27;20407;-70
2021/11/23 07:45:59;;;;;;;11.13;2.35;;;8.10;99.90;;;;;;5136276;27;20054;-69
2021/11/23 07:48:25;;;;;;;11.25;2.38;;;8.10;99.90;;;;;;5137873;27;20043;-69
2021/11/23 07:50:50;;;;;;;10.80;2.17;;;8.10;99.90;;;;;;5138067;27;20046;-69
2021/11/23 07:53:16;;;;;;;6.97;1.77;;;8.10;99.90;;;;;;5137716;27;20053;-69
2021/11/23 07:55:42;;;;;;;13.23;2.25;;;8.10;99.90;;;;;;5137115;27;20077;-69
2021/11/23 07:58:07;;;;;;;8.77;1.60;;;8.10;99.90;;;;;;5137513;27;20053;-69
2021/11/23 08:00:33;;;;;;;8.77;1.95;;;8.10;99.90;;;;;;5137776;27;20035;-69
2021/11/23 08:02:59;;;;;;;10.85;1.85;;;8.10;99.90;;;;;;5137825;27;20092;-69
2021/11/23 08:05:25;;;;;;;17.10;3.83;;;8.10;99.90;;;;;;5137211;27;20438;-69
2021/11/23 08:07:50;;;;;;;8.32;1.58;;;8.10;99.90;;;;;;5137583;27;20028;-69
2021/11/23 08:10:16;;;;;;;8.88;2.95;;;8.10;99.90;;;;;;5137106;27;20054;-69
2021/11/23 08:12:42;;;;;;;9.13;1.85;;;8.10;99.90;;;;;;5137220;27;20028;-69
2021/11/23 08:15:08;;;;;;;9.20;1.70;;;8.10;99.90;;;;;;5137330;27;20028;-69
2021/11/23 08:17:34;;;;;;;10.32;2.35;;;8.10;99.90;;;;;;5135806;27;20043;-69
2021/11/23 08:20:00;;;;;;;8.13;2.58;;;8.10;99.90;;;;;;5137179;27;20039;-69
2021/11/23 08:22:25;;;;;;;12.23;1.70;;;8.10;99.90;;;;;;5137006;27;20039;-69
2021/11/23 08:24:51;;;;;;;9.15;2.30;;;8.10;99.90;;;;;;5136935;27;20083;-69
2021/11/23 08:27:17;;;;;;;10.00;2.75;;;8.10;99.90;;;;;;5136718;27;20131;-69
2021/11/23 08:29:42;;;;;;;11.95;2.13;;;8.10;99.90;;;;;;5136482;27;20036;-69
2021/11/23 08:32:09;;;;;;;8.55;1.80;;;8.10;99.90;;;;;;5134781;27;20071;-69
2021/11/23 08:34:34;;;;;;;12.15;1.90;;;8.10;99.90;;;;;;5137004;27;20035;-69
2021/11/23 08:37:01;;;;;;;9.93;1.98;;;8.10;99.90;;;;;;5136423;27;20035;-69
2021/11/23 08:39:27;;;;;;;9.15;2.30;;;8.00;99.90;;;;;;5136808;27;20091;-69
2021/11/23 08:41:53;;;;;;;10.40;1.90;;;8.00;99.90;;;;;;5136839;27;20057;-69
2021/11/23 08:44:18;;;;;;;5.18;1.70;;;8.10;99.90;;;;;;5136883;27;20031;-69
2021/11/23 08:46:44;;;;;;;15.00;2.10;;;8.10;99.90;;;;;;5136481;27;20190;-69
2021/11/23 08:49:10;;;;;;;7.15;2.10;;;8.10;99.90;;;;;;5136539;27;20073;-69
2021/11/23 08:51:37;;;;;;;11.40;1.90;;;8.10;99.90;;;;;;5136402;27;20049;-69
2021/11/23 08:54:06;;;;;;;7.40;1.92;;;8.20;99.90;;;;;;5135691;27;20426;-69
2021/11/23 08:56:38;;;;;;;7.95;2.40;;;8.20;99.90;;;;;;5134731;27;20043;-69
2021/11/23 08:59:10;;;;;;;12.95;2.60;;;8.20;99.90;;;;;;5136345;27;20043;-69
2021/11/23 09:01:36;;;;;;;11.15;1.80;;;8.30;99.90;;;;;;5136717;27;20200;-69
2021/11/23 09:04:04;;;;;;;13.60;2.88;;;8.30;99.90;;;;;;5135821;27;20089;-69
2021/11/23 09:06:33;;;;;;;8.50;1.80;;;8.30;99.90;;;;;;5123466;27;20142;-70
2021/11/23 09:08:59;;;;;;;8.75;2.20;;;8.30;99.90;;;;;;5117600;27;20085;-69
2021/11/23 09:11:28;;;;;;;12.77;3.45;;;8.40;99.90;;;;;;5114329;28;20374;-69
2021/11/23 09:13:54;;;;;;;10.50;2.67;;;8.40;99.90;;;;;;5115856;28;20035;-69
2021/11/23 09:16:21;;;;;;;9.07;2.55;;;8.40;99.90;;;;;;5114461;28;20090;-69
2021/11/23 09:18:47;;;;;;;7.95;2.80;;;8.40;99.90;;;;;;5115114;28;20055;-69
2021/11/23 09:21:13;;;;;;;8.55;3.40;;;8.50;99.90;;;;;;5115857;27;20039;-70
2021/11/23 09:23:38;;;;;;;9.98;2.65;;;8.60;99.90;;;;;;5115500;28;20118;-69
2021/11/23 09:26:04;;;;;;;7.85;2.42;;;8.70;99.90;;;;;;5115169;28;20392;-70
2021/11/23 09:28:30;;;;;;;9.00;2.40;;;8.70;99.90;;;;;;5115298;28;20392;-69
2021/11/23 09:30:55;;;;;;;13.45;2.85;;;8.70;99.90;;;;;;5114457;28;20040;-69
2021/11/23 09:33:21;;;;;;;10.30;2.42;;;8.70;99.90;;;;;;5115211;28;20404;-69
2021/11/23 09:35:47;;;;;;;13.13;2.50;;;8.70;99.90;;;;;;5114616;28;20043;-69
2021/11/23 09:38:12;;;;;;;12.27;3.72;;;8.70;99.90;;;;;;5114814;28;20031;-69
2021/11/23 09:40:38;;;;;;;9.38;2.60;;;8.70;99.90;;;;;;5115663;28;20088;-69
2021/11/23 09:43:04;;;;;;;10.88;2.80;;;8.70;99.90;;;;;;5113626;28;20036;-70
2021/11/23 09:45:30;;;;;;;13.95;2.88;;;8.80;99.90;;;;;;5115284;28;20035;-69
2021/11/23 09:47:58;;;;;;;8.48;2.58;;;8.80;99.90;;;;;;5114912;28;20039;-69
2021/11/23 09:50:24;;;;;;;8.63;2.88;;;8.80;99.90;;;;;;5114793;28;20043;-69
2021/11/23 09:52:50;;;;;;;7.95;2.28;;;8.90;99.90;;;;;;5114649;28;20381;-70
2021/11/23 09:55:17;;;;;;;11.00;2.45;;;9.10;99.90;;;;;;5114680;28;20046;-69
2021/11/23 09:57:42;;;;;;;13.13;2.75;;;9.10;99.90;;;;;;5114647;28;20035;-69
2021/11/23 10:00:33;;;;;;;11.23;2.97;;;9.20;99.90;;;;;;5113132;28;20050;-69
2021/11/23 10:03:00;;;;;;;6.93;2.33;;;9.10;99.90;;;;;;5114923;28;20032;-69
2021/11/23 10:05:30;;;;;;;9.70;2.50;;;9.10;99.90;;;;;;5113317;28;20096;-68
2021/11/23 10:07:56;;;;;;;13.55;2.45;;;9.10;99.90;;;;;;5113010;28;20054;-69
2021/11/23 10:10:25;;;;;;;8.55;2.03;;;9.10;99.90;;;;;;5114767;28;20032;-69
2021/11/23 10:12:59;;;;;;;10.68;2.42;;;9.20;99.90;;;;;;5114934;28;20035;-69
2021/11/23 10:15:27;;;;;;;8.68;2.08;;;9.20;99.90;;;;;;5112913;28;20114;-69
2021/11/23 10:18:06;;;;;;;11.05;2.72;;;9.20;99.90;;;;;;5114138;28;20040;-69
2021/11/23 10:20:59;;;;;;;11.85;2.20;;;9.20;99.90;;;;;;5114646;28;20042;-70
2021/11/23 10:23:34;;;;;;;11.32;2.70;;;9.20;99.90;;;;;;5111655;28;20471;-69
2021/11/23 10:26:14;;;;;;;9.27;2.10;;;9.20;99.90;;;;;;5113675;28;20477;-69
2021/11/23 10:28:48;;;;;;;13.82;2.17;;;9.20;99.90;;;;;;5112826;28;20051;-69
2021/11/23 10:31:15;;;;;;;7.68;1.75;;;9.30;99.90;;;;;;5114548;28;20043;-70
2021/11/23 10:33:43;;;;;;;8.45;1.80;;;9.30;99.90;;;;;;5113207;28;20051;-70
2021/11/23 10:36:11;;;;;;;11.18;1.73;;;9.30;99.90;;;;;;5112574;28;20058;-70
2021/11/23 10:38:38;;;;;;;10.88;3.33;;;9.30;99.90;;;;;;5114029;28;20042;-70
2021/11/23 10:41:08;;;;;;;8.93;2.08;;;9.30;99.90;;;;;;5114324;28;20122;-70
2021/11/23 10:43:37;;;;;;;4.95;1.75;;;9.30;99.90;;;;;;5114340;28;20036;-69
2021/11/23 10:46:03;;;;;;;12.25;1.80;;;9.40;99.90;;;;;;5112146;28;20508;-70
2021/11/23 10:48:30;;;;;;;10.40;1.80;;;9.60;99.90;;;;;;5112393;28;20047;-70
2021/11/23 10:51:08;;;;;;;12.98;2.05;;;9.70;99.90;;;;;;5114537;28;20092;-70
2021/11/23 10:53:35;;;;;;;8.30;2.45;;;9.80;99.90;;;;;;5113348;28;20047;-70
2021/11/23 10:56:12;;;;;;;7.65;1.80;;;9.90;99.90;;;;;;5113497;28;20108;-69
2021/11/23 10:58:40;;;;;;;8.20;1.80;;;9.90;99.90;;;;;;5113926;28;20092;-70
2021/11/23 11:01:06;;;;;;;11.20;2.33;;;9.90;99.90;;;;;;5113841;28;20039;-70
2021/11/23 11:03:34;;;;;;;7.40;1.90;;;9.90;99.90;;;;;;5113838;28;20088;-69
2021/11/23 11:06:02;;;;;;;9.45;2.13;;;9.80;99.90;;;;;;5113379;28;20115;-70
2021/11/23 11:08:33;;;;;;;11.57;2.28;;;9.70;99.90;;;;;;5122641;28;20046;-70
2021/11/23 11:10:59;;;;;;;8.30;1.63;;;9.70;99.90;;;;;;5134149;27;20039;-70
2021/11/23 11:13:25;;;;;;;7.50;1.30;;;9.60;99.90;;;;;;5133076;28;20039;-70
2021/11/23 11:15:53;;;;;;;6.38;1.23;;;9.50;99.90;;;;;;5132803;28;20095;-70
2021/11/23 11:18:22;;;;;;;4.88;1.30;;;9.50;99.90;;;;;;5132982;28;20043;-70
2021/11/23 11:20:55;;;;;;;6.20;1.27;;;9.50;99.90;;;;;;5134620;27;20089;-70
2021/11/23 11:23:25;;;;;;;8.27;1.40;;;9.50;99.90;;;;;;5133226;28;20155;-70
2021/11/23 11:25:52;;;;;;;6.55;1.40;;;9.40;99.90;;;;;;5133536;27;20043;-70
2021/11/23 11:28:46;;;;;;;7.53;1.40;;;9.50;99.90;;;;;;5133754;27;20400;-70
2021/11/23 11:31:33;;;;;;;5.75;1.38;;;9.50;99.90;;;;;;5134254;27;20039;-70
2021/11/23 11:34:24;;;;;;;9.70;2.03;;;9.40;99.90;;;;;;5134494;27;20431;-70
2021/11/23 11:37:04;;;;;;;4.50;2.20;;;9.30;99.90;;;;;;5132347;27;20039;-70
2021/11/23 11:39:36;;;;;;;5.93;1.90;;;9.30;99.90;;;;;;5134229;27;20153;-70
2021/11/23 11:42:07;;;;;;;5.30;1.70;;;9.40;99.90;;;;;;5132948;28;20043;-70
2021/11/23 11:44:41;;;;;;;7.25;2.50;;;9.30;99.90;;;;;;5133934;27;20039;-70
2021/11/23 11:47:11;;;;;;;4.10;1.67;;;9.30;99.90;;;;;;5133365;27;20047;-70
2021/11/23 11:49:51;;;;;;;9.20;2.72;;;9.40;99.90;;;;;;5132687;28;20093;-70
2021/11/23 11:52:19;;;;;;;7.90;1.52;;;9.40;99.90;;;;;;5132658;27;20043;-70
2021/11/23 11:55:11;;;;;;;4.82;1.30;;;9.40;99.90;;;;;;5133748;27;20122;-70
2021/11/23 11:57:42;;;;;;;10.07;2.08;;;9.50;99.90;;;;;;5114945;28;20049;-70
2021/11/23 12:00:23;;;;;;;18.50;2.78;;;9.50;99.90;;;;;;5134001;27;20035;-70
2021/11/23 12:02:50;;;;;;;5.22;1.13;;;9.60;99.90;;;;;;5133880;27;20488;-70
2021/11/23 12:05:17;;;;;;;5.68;1.52;;;9.60;99.90;;;;;;5134203;27;20112;-70
2021/11/23 12:07:49;;;;;;;6.38;1.00;;;9.70;99.90;;;;;;5136946;27;20119;-70
2021/11/23 12:10:19;;;;;;;8.30;1.35;;;9.70;99.90;;;;;;5118856;27;20043;-70
2021/11/23 12:12:57;;;;;;;9.25;1.17;;;9.70;99.90;;;;;;5137365;27;20045;-70
2021/11/23 12:15:47;;;;;;;9.82;1.58;;;9.80;99.90;;;;;;5136280;27;20043;-69
2021/11/23 12:18:25;;;;;;;8.50;1.10;;;9.90;99.90;;;;;;5135825;27;20054;-70
2021/11/23 12:21:03;;;;;;;13.68;1.60;;;10.00;99.90;;;;;;5137019;27;20474;-70
2021/11/23 12:23:39;;;;;;;6.88;1.35;;;10.10;99.90;;;;;;5137497;27;20046;-70
2021/11/23 12:26:14;;;;;;;6.85;1.38;;;10.20;99.90;;;;;;5135426;27;20046;-70
2021/11/23 12:28:51;;;;;;;11.52;1.85;;;10.30;99.90;;;;;;5135514;27;20515;-70
2021/11/23 12:31:17;;;;;;;5.15;1.30;;;10.30;99.90;;;;;;5135792;27;20035;-70
2021/11/23 12:33:50;;;;;;;9.18;1.80;;;10.30;99.90;;;;;;5136108;27;20166;-70
2021/11/23 12:36:19;;;;;;;7.00;1.10;;;10.30;99.90;;;;;;5136481;27;20047;-70
2021/11/23 12:38:46;;;;;;;9.20;1.38;;;10.20;99.90;;;;;;5136867;27;20399;-70
2021/11/23 12:41:22;;;;;;;8.13;1.70;;;10.20;99.90;;;;;;5135557;27;20046;-69
2021/11/23 12:43:48;;;;;;;6.50;1.10;;;10.20;99.90;;;;;;5136765;27;20039;-69
2021/11/23 12:46:21;;;;;;;10.68;2.75;;;10.30;99.90;;;;;;5134932;27;20506;-69
2021/11/23 12:48:50;;;;;;;5.20;2.00;;;10.20;99.90;;;;;;5136990;27;20496;-70
2021/11/23 12:51:25;;;;;;;7.63;1.40;;;10.20;99.90;;;;;;5136437;27;20110;-69
2021/11/23 12:54:00;;;;;;;12.32;1.77;;;10.20;99.90;;;;;;5135329;27;20039;-70